Time;durP1;ratioP1;P1;durP2;ratioP2;P2;SDS_P1;SDS_P2;PMS_P1;PMS_P2;Temp;Humidity;BMP_temperature;BMP_pressure;BME280_temperature;BME280_humidity;BME280_pressure;Samples;Min_cycle;Max_cycle;Signal;HPM_P1;HPM_P2
2022/09/20 00:00:34;;;;;;;;;3.25;2.50;;;;;;;;5081821;27;51772;-55
2022/09/20 00:02:59;;;;;;;;;2.00;2.00;;;;;;;;5082774;27;51186;-56
2022/09/20 00:05:24;;;;;;;;;2.00;1.00;;;;;;;;5082826;27;51257;-57
2022/09/20 00:07:50;;;;;;;;;1.50;1.00;;;;;;;;5083581;27;51222;-56
2022/09/20 00:10:15;;;;;;;;;2.00;2.00;;;;;;;;5082946;27;52257;-57
2022/09/20 00:12:40;;;;;;;;;1.75;1.25;;;;;;;;5080495;27;51961;-55
2022/09/20 00:15:05;;;;;;;;;2.00;2.00;;;;;;;;5085749;27;51118;-55
2022/09/20 00:17:31;;;;;;;;;2.00;2.00;;;;;;;;5082063;27;51233;-55
2022/09/20 00:19:56;;;;;;;;;1.25;1.25;;;;;;;;5080601;27;52797;-56
2022/09/20 00:22:21;;;;;;;;;2.00;1.50;;;;;;;;5082516;27;51114;-54
2022/09/20 00:24:46;;;;;;;;;2.50;2.00;;;;;;;;5080604;27;51397;-55
2022/09/20 00:27:12;;;;;;;;;2.75;2.75;;;;;;;;5081756;27;51214;-55
2022/09/20 00:29:37;;;;;;;;;3.25;2.00;;;;;;;;5083770;27;52031;-55
2022/09/20 00:32:02;;;;;;;;;2.00;2.00;;;;;;;;5080397;27;51082;-55
2022/09/20 00:37:11;;;;;;;;;2.00;2.00;;;;;;;;5073953;27;51196;-56
2022/09/20 00:39:36;;;;;;;;;2.75;2.00;;;;;;;;5076238;27;52255;-56
2022/09/20 00:42:02;;;;;;;;;2.25;1.50;;;;;;;;5083899;27;51191;-57
2022/09/20 00:44:42;;;;;;;;;6.00;5.00;;;;;;;;5079654;27;51168;-55
2022/09/20 00:47:12;;;;;;;;;5.00;3.50;;;;;;;;5080681;27;51801;-56
2022/09/20 00:49:38;;;;;;;;;4.50;3.75;;;;;;;;5081730;27;52027;-55
2022/09/20 00:52:03;;;;;;;;;1.33;1.33;;;;;;;;5083008;27;51317;-55
2022/09/20 00:54:29;;;;;;;;;2.67;1.00;;;;;;;;5085236;27;51949;-55
2022/09/20 00:56:55;;;;;;;;;2.00;2.00;;;;;;;;5084483;27;51095;-55
2022/09/20 00:59:33;;;;;;;;;2.25;2.00;;;;;;;;5083783;27;51652;-55
2022/09/20 01:02:05;;;;;;;;;3.00;1.75;;;;;;;;5083136;27;51251;-55
2022/09/20 01:04:31;;;;;;;;;2.50;2.25;;;;;;;;5083758;27;51087;-55
2022/09/20 01:06:59;;;;;;;;;2.67;2.67;;;;;;;;5076217;27;51421;-56
2022/09/20 01:09:24;;;;;;;;;1.00;1.00;;;;;;;;5073956;27;51240;-55
2022/09/20 01:11:50;;;;;;;;;4.00;3.00;;;;;;;;5072095;27;50849;-55
2022/09/20 01:14:21;;;;;;;;;2.00;2.00;;;;;;;;5075204;27;51132;-55
2022/09/20 01:16:46;;;;;;;;;3.25;3.00;;;;;;;;5080181;27;51262;-56
2022/09/20 01:19:18;;;;;;;;;2.00;2.00;;;;;;;;5083496;27;51207;-54
2022/09/20 01:21:45;;;;;;;;;2.25;2.00;;;;;;;;5084783;27;51202;-55
2022/09/20 01:24:21;;;;;;;;;2.00;2.00;;;;;;;;5082165;27;51129;-57
2022/09/20 01:26:53;;;;;;;;;2.50;2.00;;;;;;;;5082838;27;51289;-55
2022/09/20 01:29:21;;;;;;;;;4.00;2.00;;;;;;;;5081945;27;51226;-56
2022/09/20 01:31:51;;;;;;;;;2.00;2.00;;;;;;;;5082539;27;51181;-56
2022/09/20 01:34:36;;;;;;;;;4.25;2.00;;;;;;;;5084976;27;51395;-55
2022/09/20 01:37:18;;;;;;;;;1.67;1.67;;;;;;;;5089413;27;52685;-56
2022/09/20 01:39:52;;;;;;;;;2.00;2.00;;;;;;;;5073785;27;52117;-55
2022/09/20 01:42:17;;;;;;;;;3.00;2.00;;;;;;;;5084127;27;50922;-55
2022/09/20 01:44:43;;;;;;;;;2.00;2.00;;;;;;;;5090444;27;51281;-55
2022/09/20 01:47:27;;;;;;;;;2.00;2.00;;;;;;;;5082279;27;51288;-55
2022/09/20 01:49:55;;;;;;;;;2.25;2.00;;;;;;;;5073208;27;51039;-55
2022/09/20 01:52:38;;;;;;;;;3.00;3.00;;;;;;;;5077012;27;50881;-55
2022/09/20 01:55:06;;;;;;;;;2.75;2.00;;;;;;;;5074734;27;51391;-54
2022/09/20 01:57:40;;;;;;;;;2.00;2.00;;;;;;;;5085505;27;51294;-56
2022/09/20 02:00:08;;;;;;;;;3.25;3.00;;;;;;;;5089915;27;51210;-54
2022/09/20 02:02:49;;;;;;;;;3.25;3.25;;;;;;;;5075933;27;51205;-55
2022/09/20 02:05:26;;;;;;;;;3.25;3.25;;;;;;;;5076837;27;51104;-54
2022/09/20 02:08:10;;;;;;;;;3.00;3.00;;;;;;;;5071521;27;51191;-54
2022/09/20 02:10:35;;;;;;;;;2.00;2.00;;;;;;;;5075077;27;54017;-54
2022/09/20 02:13:08;;;;;;;;;1.00;1.00;;;;;;;;5072451;27;51137;-54
2022/09/20 02:16:09;;;;;;;;;2.00;2.00;;;;;;;;5078133;27;51018;-54
2022/09/20 02:18:53;;;;;;;;;2.00;2.00;;;;;;;;5068995;28;51051;-54
2022/09/20 02:21:40;;;;;;;;;3.00;2.75;;;;;;;;5079093;27;51010;-55
2022/09/20 02:24:05;;;;;;;;;3.50;3.00;;;;;;;;5082797;27;51013;-53
2022/09/20 02:26:39;;;;;;;;;3.50;2.75;;;;;;;;5073670;27;51059;-55
2022/09/20 02:29:16;;;;;;;;;4.50;3.50;;;;;;;;5073927;27;51305;-56
2022/09/20 02:32:04;;;;;;;;;3.25;3.00;;;;;;;;5092566;27;52169;-55
2022/09/20 02:34:50;;;;;;;;;2.25;2.25;;;;;;;;5089400;27;50926;-55
2022/09/20 02:37:26;;;;;;;;;3.00;2.75;;;;;;;;5075095;27;51381;-54
2022/09/20 02:39:54;;;;;;;;;2.50;2.50;;;;;;;;5081261;27;51040;-54
2022/09/20 02:42:23;;;;;;;;;4.00;2.75;;;;;;;;5074629;27;53194;-55
2022/09/20 02:45:08;;;;;;;;;2.00;2.00;;;;;;;;5076051;27;51246;-54
2022/09/20 02:47:37;;;;;;;;;3.00;3.00;;;;;;;;5079052;27;51127;-54
2022/09/20 02:50:18;;;;;;;;;3.25;3.25;;;;;;;;5075032;27;51304;-59
2022/09/20 02:53:04;;;;;;;;;2.75;2.25;;;;;;;;5075036;27;52573;-54
2022/09/20 02:55:35;;;;;;;;;2.00;2.00;;;;;;;;5077689;27;51116;-55
2022/09/20 02:58:08;;;;;;;;;3.00;3.00;;;;;;;;5074537;27;50965;-53
2022/09/20 03:00:43;;;;;;;;;3.25;3.25;;;;;;;;5075117;27;51093;-56
2022/09/20 03:03:27;;;;;;;;;3.50;3.50;;;;;;;;5077930;27;51119;-54
2022/09/20 03:06:01;;;;;;;;;2.00;2.00;;;;;;;;5085638;27;51091;-53
2022/09/20 03:08:36;;;;;;;;;2.00;2.00;;;;;;;;5082703;27;51336;-54
2022/09/20 03:11:11;;;;;;;;;2.25;2.25;;;;;;;;5073506;27;51257;-53
2022/09/20 03:13:46;;;;;;;;;3.75;2.75;;;;;;;;5090239;27;51226;-53
2022/09/20 03:16:31;;;;;;;;;4.00;4.00;;;;;;;;5075284;27;51153;-54
2022/09/20 03:19:05;;;;;;;;;3.25;2.75;;;;;;;;5089663;27;51161;-53
2022/09/20 03:21:49;;;;;;;;;4.00;3.00;;;;;;;;5076121;27;50858;-54
2022/09/20 03:24:17;;;;;;;;;5.00;4.25;;;;;;;;5084967;27;50964;-54
2022/09/20 03:26:45;;;;;;;;;3.50;3.50;;;;;;;;5073283;27;51035;-53
2022/09/20 03:29:16;;;;;;;;;5.00;3.75;;;;;;;;5081522;27;51268;-54
2022/09/20 03:32:00;;;;;;;;;3.75;3.75;;;;;;;;5081792;27;51071;-53
2022/09/20 03:34:31;;;;;;;;;3.00;2.25;;;;;;;;5082988;27;52092;-55
2022/09/20 03:37:15;;;;;;;;;2.00;2.00;;;;;;;;5074633;27;51227;-55
2022/09/20 03:39:40;;;;;;;;;3.50;3.50;;;;;;;;5074978;27;51119;-53
2022/09/20 03:42:25;;;;;;;;;3.00;2.60;;;;;;;;5079355;27;51266;-53
2022/09/20 03:45:06;;;;;;;;;4.00;3.00;;;;;;;;5074561;27;51868;-54
2022/09/20 03:47:41;;;;;;;;;3.50;2.00;;;;;;;;5076447;27;52284;-54
2022/09/20 03:50:06;;;;;;;;;4.75;3.00;;;;;;;;5083368;27;50982;-56
2022/09/20 03:52:47;;;;;;;;;4.50;3.75;;;;;;;;5075790;27;50987;-54
2022/09/20 03:55:18;;;;;;;;;4.25;3.00;;;;;;;;5087919;27;51993;-54
2022/09/20 03:57:43;;;;;;;;;5.00;4.00;;;;;;;;5076320;27;51135;-54
2022/09/20 04:00:08;;;;;;;;;2.00;2.00;;;;;;;;5079616;27;51180;-55
2022/09/20 04:02:56;;;;;;;;;4.00;3.75;;;;;;;;5077032;27;51143;-53
2022/09/20 04:05:40;;;;;;;;;3.00;3.00;;;;;;;;5076785;27;52493;-53
2022/09/20 04:08:24;;;;;;;;;2.00;2.00;;;;;;;;5077195;27;51169;-54
2022/09/20 04:10:58;;;;;;;;;3.00;3.00;;;;;;;;5072462;27;50986;-52
2022/09/20 04:13:26;;;;;;;;;2.75;2.75;;;;;;;;5085526;27;51308;-54
2022/09/20 04:15:54;;;;;;;;;4.75;4.75;;;;;;;;5073909;27;51705;-53
2022/09/20 04:18:38;;;;;;;;;3.00;3.00;;;;;;;;5073459;27;51207;-55
2022/09/20 04:21:14;;;;;;;;;3.00;3.00;;;;;;;;5077203;27;51256;-54
2022/09/20 04:23:39;;;;;;;;;3.75;3.25;;;;;;;;5081363;27;51853;-54
2022/09/20 04:26:04;;;;;;;;;6.50;6.50;;;;;;;;5072860;27;51955;-54
2022/09/20 04:28:35;;;;;;;;;5.00;3.50;;;;;;;;5075543;27;51167;-54
2022/09/20 04:31:20;;;;;;;;;3.00;3.00;;;;;;;;5071949;27;51767;-55
2022/09/20 04:33:49;;;;;;;;;3.00;3.00;;;;;;;;5073650;27;51294;-54
2022/09/20 04:36:29;;;;;;;;;4.25;3.00;;;;;;;;5083826;27;52322;-54
2022/09/20 04:39:11;;;;;;;;;3.00;3.00;;;;;;;;5078485;27;51144;-53
2022/09/20 04:41:50;;;;;;;;;3.50;3.50;;;;;;;;5080330;27;51158;-53
2022/09/20 04:44:26;;;;;;;;;3.50;3.00;;;;;;;;5081363;27;51207;-55
2022/09/20 04:47:04;;;;;;;;;5.50;5.00;;;;;;;;5085770;27;51668;-54
2022/09/20 04:49:48;;;;;;;;;2.25;2.25;;;;;;;;5085561;27;51201;-54
2022/09/20 04:52:24;;;;;;;;;6.25;5.00;;;;;;;;5085897;27;51071;-56
2022/09/20 04:54:49;;;;;;;;;3.00;3.00;;;;;;;;5080598;27;51960;-54
2022/09/20 04:57:17;;;;;;;;;4.60;4.00;;;;;;;;5086628;27;52217;-53
2022/09/20 05:00:01;;;;;;;;;5.50;4.75;;;;;;;;5077922;27;51359;-53
2022/09/20 05:02:41;;;;;;;;;5.75;2.75;;;;;;;;5080729;27;51026;-53
2022/09/20 05:05:25;;;;;;;;;7.00;5.00;;;;;;;;5085671;27;51521;-55
2022/09/20 05:08:09;;;;;;;;;4.25;4.00;;;;;;;;5082639;27;53088;-51
2022/09/20 05:10:41;;;;;;;;;3.00;3.00;;;;;;;;5079947;27;51159;-55
2022/09/20 05:13:25;;;;;;;;;4.75;4.75;;;;;;;;5082768;27;51256;-56
2022/09/20 05:16:08;;;;;;;;;7.50;5.00;;;;;;;;5086044;27;51835;-55
2022/09/20 05:18:46;;;;;;;;;6.00;6.00;;;;;;;;5073188;27;52272;-54
2022/09/20 05:21:27;;;;;;;;;5.00;5.00;;;;;;;;5077799;27;51246;-55
2022/09/20 05:24:04;;;;;;;;;6.50;5.75;;;;;;;;5077739;27;51107;-54
2022/09/20 05:26:43;;;;;;;;;6.00;5.00;;;;;;;;5079457;27;51141;-54
2022/09/20 05:29:20;;;;;;;;;4.00;4.00;;;;;;;;5082051;27;53106;-54
2022/09/20 05:31:50;;;;;;;;;4.75;4.00;;;;;;;;5078148;27;51159;-56
2022/09/20 05:34:28;;;;;;;;;7.25;6.50;;;;;;;;5074380;27;51328;-55
2022/09/20 05:37:00;;;;;;;;;7.75;6.00;;;;;;;;5091876;27;51051;-54
2022/09/20 05:39:37;;;;;;;;;5.00;5.00;;;;;;;;5086442;27;51428;-54
2022/09/20 05:42:21;;;;;;;;;5.00;4.25;;;;;;;;5080218;27;51001;-53
2022/09/20 05:44:55;;;;;;;;;5.00;4.50;;;;;;;;5077020;27;51203;-55
2022/09/20 05:47:27;;;;;;;;;4.75;4.00;;;;;;;;5088247;27;50934;-55
2022/09/20 05:49:55;;;;;;;;;4.75;4.25;;;;;;;;5077692;27;51949;-55
2022/09/20 05:52:23;;;;;;;;;5.00;5.00;;;;;;;;5082830;27;50996;-54
2022/09/20 05:54:54;;;;;;;;;7.50;7.00;;;;;;;;5082405;27;51133;-54
2022/09/20 05:57:34;;;;;;;;;7.50;7.00;;;;;;;;5070283;27;51040;-55
2022/09/20 06:00:02;;;;;;;;;5.00;5.00;;;;;;;;5072025;27;52166;-53
2022/09/20 06:02:39;;;;;;;;;4.75;4.00;;;;;;;;5077859;27;51323;-54
2022/09/20 06:05:07;;;;;;;;;6.00;6.00;;;;;;;;5074378;27;51226;-53
2022/09/20 06:07:41;;;;;;;;;7.00;7.00;;;;;;;;5071322;27;51345;-54
2022/09/20 06:10:22;;;;;;;;;5.00;5.00;;;;;;;;5079825;27;51723;-54
2022/09/20 06:12:56;;;;;;;;;5.25;5.25;;;;;;;;5079531;27;51169;-54
2022/09/20 06:15:40;;;;;;;;;6.00;6.00;;;;;;;;5080873;27;51175;-52
2022/09/20 06:18:08;;;;;;;;;4.75;4.75;;;;;;;;5078955;27;52120;-55
2022/09/20 06:20:35;;;;;;;;;6.00;6.00;;;;;;;;5071649;27;51900;-51
2022/09/20 06:23:03;;;;;;;;;6.75;5.25;;;;;;;;5074237;27;51351;-53
2022/09/20 06:25:40;;;;;;;;;6.50;6.00;;;;;;;;5071645;27;50965;-52
2022/09/20 06:28:16;;;;;;;;;7.00;5.50;;;;;;;;5077400;27;51020;-53
2022/09/20 06:30:49;;;;;;;;;6.25;5.00;;;;;;;;5076275;27;51777;-53
2022/09/20 06:33:15;;;;;;;;;8.00;6.00;;;;;;;;5072232;27;51092;-53
2022/09/20 06:35:43;;;;;;;;;4.75;4.75;;;;;;;;5072387;27;51182;-54
2022/09/20 06:43:42;;;;;;;;;4.25;4.00;;;;;;;;5076446;27;51134;-52
2022/09/20 06:46:09;;;;;;;;;4.75;4.00;;;;;;;;5092249;27;51067;-51
2022/09/20 06:48:37;;;;;;;;;4.75;4.75;;;;;;;;5093058;27;51141;-52
2022/09/20 06:51:02;;;;;;;;;6.25;6.25;;;;;;;;5093149;27;51669;-51
2022/09/20 06:53:29;;;;;;;;;5.00;5.00;;;;;;;;5096331;27;50985;-53
2022/09/20 06:55:56;;;;;;;;;7.25;7.25;;;;;;;;5076420;27;50904;-51
2022/09/20 06:58:21;;;;;;;;;7.75;7.50;;;;;;;;5077279;27;51326;-52
2022/09/20 07:00:47;;;;;;;;;9.25;8.00;;;;;;;;5082162;27;52114;-54
2022/09/20 07:03:12;;;;;;;;;6.50;5.00;;;;;;;;5082270;27;51052;-52
2022/09/20 07:05:37;;;;;;;;;8.25;7.00;;;;;;;;5076144;27;51049;-53
2022/09/20 07:08:03;;;;;;;;;8.75;8.00;;;;;;;;5074399;28;51322;-51
2022/09/20 07:10:28;;;;;;;;;8.50;8.50;;;;;;;;5074693;27;52288;-54
2022/09/20 07:12:55;;;;;;;;;6.75;6.75;;;;;;;;5075756;27;50964;-55
2022/09/20 07:15:21;;;;;;;;;9.75;9.50;;;;;;;;5075755;27;51052;-53
2022/09/20 07:17:48;;;;;;;;;9.00;7.50;;;;;;;;5082082;27;51318;-54
2022/09/20 07:20:13;;;;;;;;;10.00;10.00;;;;;;;;5074949;27;52977;-53
2022/09/20 07:22:38;;;;;;;;;10.00;9.75;;;;;;;;5075110;27;50915;-53
2022/09/20 07:25:04;;;;;;;;;9.25;7.50;;;;;;;;5075166;28;50880;-54
2022/09/20 07:27:29;;;;;;;;;12.75;12.50;;;;;;;;5075349;27;50934;-54
2022/09/20 07:29:55;;;;;;;;;13.00;11.75;;;;;;;;5073813;28;52741;-52
2022/09/20 07:32:20;;;;;;;;;9.25;9.25;;;;;;;;5075252;27;50954;-53
2022/09/20 07:34:45;;;;;;;;;8.50;7.50;;;;;;;;5075039;27;51162;-53
2022/09/20 07:37:11;;;;;;;;;10.25;9.00;;;;;;;;5075518;27;51273;-54
2022/09/20 07:39:37;;;;;;;;;9.50;8.25;;;;;;;;5074775;27;52152;-52
2022/09/20 07:42:05;;;;;;;;;6.75;6.00;;;;;;;;5074791;27;51167;-53
2022/09/20 07:44:30;;;;;;;;;10.00;8.00;;;;;;;;5081618;27;51196;-54
2022/09/20 07:46:59;;;;;;;;;5.75;5.00;;;;;;;;5095830;27;51225;-54
2022/09/20 07:49:25;;;;;;;;;5.00;5.00;;;;;;;;5095163;27;51891;-54
2022/09/20 07:51:51;;;;;;;;;6.25;5.75;;;;;;;;5095357;27;50985;-53
2022/09/20 07:54:17;;;;;;;;;7.50;7.00;;;;;;;;5075675;27;50956;-51
2022/09/20 07:56:43;;;;;;;;;7.00;6.75;;;;;;;;5074997;27;51040;-52
2022/09/20 07:59:12;;;;;;;;;6.00;4.75;;;;;;;;5075417;28;51238;-52
2022/09/20 08:01:37;;;;;;;;;5.00;5.00;;;;;;;;5087845;27;50922;-51
2022/09/20 08:04:03;;;;;;;;;6.00;5.00;;;;;;;;5074321;27;51197;-51
2022/09/20 08:06:29;;;;;;;;;7.00;5.75;;;;;;;;5093799;27;51500;-54
2022/09/20 08:08:55;;;;;;;;;7.75;5.00;;;;;;;;5094674;27;51339;-53
2022/09/20 08:11:24;;;;;;;;;7.75;7.00;;;;;;;;5094857;27;51068;-53
2022/09/20 08:13:51;;;;;;;;;4.25;4.25;;;;;;;;5095788;27;51040;-54
2022/09/20 08:16:16;;;;;;;;;4.50;4.50;;;;;;;;5095218;27;50936;-55
2022/09/20 08:18:45;;;;;;;;;9.50;7.50;;;;;;;;5074890;27;52103;-54
2022/09/20 08:21:11;;;;;;;;;8.00;6.00;;;;;;;;5074554;27;50943;-54
2022/09/20 08:23:37;;;;;;;;;5.25;5.25;;;;;;;;5075075;27;51016;-53
2022/09/20 08:26:03;;;;;;;;;8.00;7.75;;;;;;;;5074314;27;51294;-50
2022/09/20 08:28:30;;;;;;;;;8.00;7.25;;;;;;;;5074699;28;51093;-53
2022/09/20 08:31:01;;;;;;;;;8.75;7.75;;;;;;;;5073193;28;50996;-51
2022/09/20 08:33:27;;;;;;;;;6.50;6.50;;;;;;;;5073232;28;51135;-53
2022/09/20 08:35:53;;;;;;;;;7.25;7.00;;;;;;;;5074110;27;51316;-51
2022/09/20 08:38:18;;;;;;;;;7.00;7.00;;;;;;;;5074316;27;52984;-54
2022/09/20 08:40:44;;;;;;;;;10.00;8.25;;;;;;;;5073606;27;51256;-54
2022/09/20 08:43:10;;;;;;;;;8.00;8.00;;;;;;;;5074263;27;51225;-54
2022/09/20 08:45:37;;;;;;;;;9.25;8.75;;;;;;;;5089855;27;50990;-56
2022/09/20 08:48:05;;;;;;;;;7.50;7.50;;;;;;;;5094197;27;50962;-52
2022/09/20 08:50:33;;;;;;;;;8.00;7.00;;;;;;;;5094377;27;50824;-53
2022/09/20 08:53:03;;;;;;;;;7.00;6.75;;;;;;;;5085336;27;51081;-53
2022/09/20 08:55:33;;;;;;;;;8.00;6.00;;;;;;;;5073781;27;51251;-54
2022/09/20 08:57:59;;;;;;;;;5.00;5.00;;;;;;;;5072477;28;53793;-54
2022/09/20 09:00:29;;;;;;;;;13.75;12.00;;;;;;;;5074991;27;51103;-53
2022/09/20 09:02:56;;;;;;;;;10.25;9.75;;;;;;;;5083689;27;50942;-55
2022/09/20 09:05:25;;;;;;;;;8.33;8.00;;;;;;;;5073178;27;50851;-53
2022/09/20 09:07:50;;;;;;;;;8.50;8.00;;;;;;;;5073266;27;51034;-53
2022/09/20 09:10:16;;;;;;;;;7.00;6.00;;;;;;;;5072829;27;51015;-53
2022/09/20 09:12:45;;;;;;;;;5.00;4.25;;;;;;;;5073288;27;50887;-53
2022/09/20 09:15:31;;;;;;;;;11.00;9.50;;;;;;;;5073191;27;50937;-54
2022/09/20 09:17:56;;;;;;;;;7.00;6.33;;;;;;;;5078698;27;50964;-52
2022/09/20 09:20:23;;;;;;;;;7.33;6.00;;;;;;;;5073137;27;51112;-53
2022/09/20 09:23:08;;;;;;;;;10.00;8.00;;;;;;;;5073732;27;51089;-54
2022/09/20 09:25:37;;;;;;;;;4.33;4.00;;;;;;;;5073201;28;51404;-52
2022/09/20 09:28:06;;;;;;;;;4.00;3.67;;;;;;;;5071344;28;51108;-53
2022/09/20 09:30:34;;;;;;;;;6.00;4.33;;;;;;;;5073399;28;51136;-55
2022/09/20 09:33:14;;;;;;;;;5.67;5.00;;;;;;;;5073171;27;51103;-53
2022/09/20 09:35:40;;;;;;;;;6.75;6.00;;;;;;;;5073355;27;51259;-54
2022/09/20 09:38:21;;;;;;;;;6.75;5.00;;;;;;;;5077953;27;53176;-54
2022/09/20 09:40:51;;;;;;;;;14.25;14.00;;;;;;;;5075237;27;51037;-53
2022/09/20 09:43:36;;;;;;;;;6.67;6.00;;;;;;;;5092729;27;51107;-53
2022/09/20 09:46:22;;;;;;;;;5.00;5.00;;;;;;;;5092663;27;51235;-54
2022/09/20 09:49:06;;;;;;;;;5.00;5.00;;;;;;;;5077827;27;51896;-54
2022/09/20 09:51:31;;;;;;;;;6.25;4.75;;;;;;;;5083856;27;51376;-51
2022/09/20 09:53:57;;;;;;;;;5.75;5.00;;;;;;;;5080335;27;51159;-55
2022/09/20 09:56:22;;;;;;;;;7.00;5.25;;;;;;;;5093402;27;51170;-51
2022/09/20 09:58:57;;;;;;;;;5.00;5.00;;;;;;;;5092086;27;52926;-54
2022/09/20 10:01:29;;;;;;;;;7.50;6.50;;;;;;;;5080138;27;51069;-53
2022/09/20 10:04:04;;;;;;;;;6.25;6.00;;;;;;;;5080498;27;51242;-52
2022/09/20 10:06:32;;;;;;;;;8.25;5.75;;;;;;;;5089320;27;51145;-52
2022/09/20 10:08:58;;;;;;;;;7.75;7.50;;;;;;;;5087595;27;51186;-51
2022/09/20 10:11:28;;;;;;;;;6.75;6.75;;;;;;;;5091206;27;51013;-53
2022/09/20 10:13:56;;;;;;;;;5.00;5.00;;;;;;;;5092908;27;51212;-53
2022/09/20 10:16:37;;;;;;;;;6.33;6.33;;;;;;;;5090945;27;51337;-56
2022/09/20 10:19:05;;;;;;;;;5.33;5.00;;;;;;;;5088098;27;54160;-54
2022/09/20 10:21:37;;;;;;;;;8.00;7.00;;;;;;;;5092640;27;51015;-50
2022/09/20 10:24:03;;;;;;;;;6.67;6.67;;;;;;;;5091479;27;51149;-51
2022/09/20 10:26:31;;;;;;;;;7.67;7.67;;;;;;;;5090854;27;50870;-50
2022/09/20 10:29:14;;;;;;;;;9.67;9.67;;;;;;;;5092035;27;52293;-53
2022/09/20 10:31:56;;;;;;;;;6.00;5.00;;;;;;;;5072520;27;50937;-52
2022/09/20 10:34:21;;;;;;;;;7.67;7.67;;;;;;;;5081286;27;51211;-51
2022/09/20 10:36:50;;;;;;;;;7.67;6.00;;;;;;;;5091510;27;51363;-53
2022/09/20 10:39:24;;;;;;;;;6.00;6.00;;;;;;;;5069837;27;51392;-50
2022/09/20 10:44:50;;;;;;;;;4.33;3.67;;;;;;;;5087833;27;51009;-51
2022/09/20 10:47:20;;;;;;;;;5.33;4.67;;;;;;;;5076993;27;51127;-52
2022/09/20 10:50:06;;;;;;;;;7.33;7.00;;;;;;;;5072077;27;51011;-53
2022/09/20 10:52:50;;;;;;;;;6.00;5.00;;;;;;;;5075875;27;50959;-54
2022/09/20 10:55:17;;;;;;;;;6.67;6.67;;;;;;;;5071036;27;51224;-52
2022/09/20 10:57:44;;;;;;;;;4.67;3.67;;;;;;;;5070454;27;50944;-53
2022/09/20 11:00:23;;;;;;;;;7.33;7.00;;;;;;;;5075770;27;52398;-54
2022/09/20 11:02:57;;;;;;;;;8.33;7.67;;;;;;;;5090986;27;50986;-50
2022/09/20 11:05:32;;;;;;;;;3.33;3.33;;;;;;;;5080556;27;51027;-53
2022/09/20 11:08:01;;;;;;;;;5.67;5.67;;;;;;;;5071767;27;51075;-51
2022/09/20 11:10:39;;;;;;;;;3.33;3.00;;;;;;;;5082580;27;52196;-55
2022/09/20 11:13:18;;;;;;;;;6.00;5.67;;;;;;;;5080741;27;52299;-52
2022/09/20 11:15:47;;;;;;;;;3.33;3.00;;;;;;;;5091708;27;50995;-54
2022/09/20 11:18:12;;;;;;;;;3.00;3.00;;;;;;;;5069546;27;51176;-51
2022/09/20 11:20:43;;;;;;;;;4.67;4.67;;;;;;;;5080833;27;52344;-53
2022/09/20 11:23:15;;;;;;;;;5.00;5.00;;;;;;;;5088871;27;51198;-58
2022/09/20 11:25:50;;;;;;;;;4.00;4.00;;;;;;;;5090462;27;51075;-54
2022/09/20 11:28:18;;;;;;;;;4.00;4.00;;;;;;;;5089877;27;51064;-51
2022/09/20 11:30:56;;;;;;;;;5.67;4.67;;;;;;;;5069562;28;51224;-53
2022/09/20 11:33:25;;;;;;;;;2.67;2.33;;;;;;;;5069647;28;50941;-53
2022/09/20 11:35:52;;;;;;;;;4.00;3.67;;;;;;;;5071043;27;51241;-52
2022/09/20 11:38:31;;;;;;;;;3.33;3.33;;;;;;;;5074260;27;51175;-53
2022/09/20 11:41:08;;;;;;;;;3.00;2.33;;;;;;;;5087196;27;51069;-52
2022/09/20 11:43:34;;;;;;;;;3.00;3.00;;;;;;;;5095410;27;51024;-53
2022/09/20 11:46:05;;;;;;;;;3.67;2.00;;;;;;;;5094923;27;50965;-54
2022/09/20 11:48:37;;;;;;;;;2.33;2.33;;;;;;;;5095490;27;51318;-55
2022/09/20 11:51:21;;;;;;;;;3.00;2.00;;;;;;;;5095207;27;52117;-50
2022/09/20 11:53:54;;;;;;;;;4.00;3.00;;;;;;;;5083177;27;51089;-52
2022/09/20 11:56:20;;;;;;;;;4.00;4.00;;;;;;;;5072709;28;51005;-51
2022/09/20 11:58:47;;;;;;;;;7.33;5.33;;;;;;;;5074785;27;50925;-54
2022/09/20 12:01:13;;;;;;;;;3.00;2.33;;;;;;;;5077611;27;51017;-56
2022/09/20 12:03:40;;;;;;;;;2.67;2.67;;;;;;;;5074542;27;51004;-51
2022/09/20 12:06:07;;;;;;;;;4.00;3.00;;;;;;;;5087074;27;51059;-52
2022/09/20 12:08:35;;;;;;;;;3.00;2.00;;;;;;;;5094920;27;51245;-50
2022/09/20 12:11:06;;;;;;;;;2.00;2.00;;;;;;;;5094817;27;51776;-51
2022/09/20 12:13:36;;;;;;;;;2.33;2.00;;;;;;;;5094621;27;51095;-49
2022/09/20 12:16:06;;;;;;;;;4.00;3.00;;;;;;;;5094845;27;50893;-52
2022/09/20 12:18:34;;;;;;;;;4.00;3.00;;;;;;;;5078883;27;51406;-55
2022/09/20 12:21:07;;;;;;;;;3.00;3.00;;;;;;;;5074251;27;51341;-54
2022/09/20 12:23:41;;;;;;;;;2.00;2.00;;;;;;;;5074448;27;51139;-55
2022/09/20 12:26:12;;;;;;;;;3.67;3.67;;;;;;;;5074352;27;51032;-53
2022/09/20 12:28:47;;;;;;;;;5.00;4.00;;;;;;;;5074628;28;51312;-55
2022/09/20 12:31:21;;;;;;;;;3.00;3.00;;;;;;;;5073848;27;51991;-54
2022/09/20 12:33:58;;;;;;;;;4.67;4.33;;;;;;;;5074081;27;51140;-52
2022/09/20 12:36:24;;;;;;;;;5.00;4.00;;;;;;;;5073706;27;51140;-53
2022/09/20 12:38:57;;;;;;;;;7.00;5.00;;;;;;;;5074634;27;51027;-53
2022/09/20 12:41:23;;;;;;;;;5.00;4.33;;;;;;;;5090426;27;52108;-55
2022/09/20 12:43:48;;;;;;;;;5.00;5.00;;;;;;;;5094960;27;50926;-54
2022/09/20 12:46:21;;;;;;;;;3.00;3.00;;;;;;;;5094756;27;50917;-54
2022/09/20 12:48:47;;;;;;;;;3.33;3.33;;;;;;;;5094448;27;50931;-54
2022/09/20 12:54:09;;;;;;;;;4.67;4.67;;;;;;;;5079608;27;51199;-53
2022/09/20 12:56:36;;;;;;;;;5.00;4.67;;;;;;;;5073862;27;51086;-54
2022/09/20 12:59:06;;;;;;;;;5.00;5.00;;;;;;;;5074567;27;51165;-53
2022/09/20 13:01:33;;;;;;;;;8.33;7.67;;;;;;;;5076785;27;51004;-55
2022/09/20 13:04:16;;;;;;;;;6.00;4.00;;;;;;;;5073966;27;50879;-54
2022/09/20 13:06:42;;;;;;;;;4.33;3.00;;;;;;;;5073668;27;51003;-55
2022/09/20 13:09:08;;;;;;;;;7.67;7.67;;;;;;;;5073563;27;50876;-56
2022/09/20 13:11:38;;;;;;;;;3.67;3.33;;;;;;;;5073185;28;50904;-56
2022/09/20 13:14:09;;;;;;;;;3.33;3.00;;;;;;;;5073445;27;51021;-52
2022/09/20 13:16:55;;;;;;;;;4.00;3.00;;;;;;;;5084081;27;50870;-54
2022/09/20 13:19:20;;;;;;;;;5.00;4.00;;;;;;;;5073935;27;51316;-52
2022/09/20 13:22:00;;;;;;;;;3.00;3.00;;;;;;;;5073204;27;52145;-56
2022/09/20 13:24:27;;;;;;;;;3.00;3.00;;;;;;;;5072985;27;51048;-55
2022/09/20 13:26:54;;;;;;;;;2.67;2.67;;;;;;;;5072777;27;50978;-57
2022/09/20 13:29:24;;;;;;;;;3.33;3.33;;;;;;;;5073512;27;51163;-55
2022/09/20 13:31:49;;;;;;;;;3.00;3.00;;;;;;;;5073040;27;51287;-53
2022/09/20 13:34:19;;;;;;;;;3.67;3.00;;;;;;;;5073021;27;51036;-54
2022/09/20 13:36:45;;;;;;;;;4.00;4.00;;;;;;;;5073095;28;51063;-53
2022/09/20 13:39:24;;;;;;;;;2.00;2.00;;;;;;;;5073546;27;51273;-53
2022/09/20 13:41:50;;;;;;;;;4.00;3.00;;;;;;;;5072890;27;51795;-53
2022/09/20 13:44:15;;;;;;;;;5.00;5.00;;;;;;;;5073033;27;51105;-52
2022/09/20 13:46:43;;;;;;;;;3.67;3.67;;;;;;;;5073430;27;51026;-54
2022/09/20 13:49:12;;;;;;;;;3.67;3.00;;;;;;;;5073238;27;50838;-54
2022/09/20 13:51:37;;;;;;;;;3.33;3.00;;;;;;;;5072803;27;51745;-52
2022/09/20 13:54:17;;;;;;;;;4.33;3.67;;;;;;;;5075808;27;50969;-53
2022/09/20 13:56:45;;;;;;;;;3.00;3.00;;;;;;;;5072792;27;50947;-56
2022/09/20 13:59:16;;;;;;;;;4.33;3.00;;;;;;;;5072860;27;51214;-53
2022/09/20 14:01:43;;;;;;;;;3.00;3.00;;;;;;;;5074860;27;51113;-55
2022/09/20 14:04:16;;;;;;;;;3.33;3.33;;;;;;;;5072962;27;50898;-52
2022/09/20 14:06:41;;;;;;;;;4.33;4.00;;;;;;;;5090811;27;51409;-53
2022/09/20 14:09:07;;;;;;;;;0.00;0.00;;;;;;;;5092997;27;50973;-53
2022/09/20 14:11:35;;;;;;;;;3.00;3.00;;;;;;;;5092380;27;52097;-53
2022/09/20 14:14:01;;;;;;;;;2.33;2.33;;;;;;;;5092462;27;50876;-55
2022/09/20 14:16:28;;;;;;;;;3.00;3.00;;;;;;;;5092623;27;50806;-54
2022/09/20 14:18:54;;;;;;;;;4.00;3.00;;;;;;;;5074620;27;51110;-53
2022/09/20 14:21:22;;;;;;;;;3.33;3.33;;;;;;;;5072460;27;51376;-53
2022/09/20 14:23:52;;;;;;;;;4.67;4.33;;;;;;;;5073150;27;50861;-50
2022/09/20 14:26:22;;;;;;;;;4.00;4.00;;;;;;;;5072596;27;51064;-53
2022/09/20 14:28:47;;;;;;;;;4.00;3.00;;;;;;;;5079987;27;50879;-53
2022/09/20 14:31:15;;;;;;;;;5.00;4.33;;;;;;;;5092812;27;51105;-52
2022/09/20 14:33:42;;;;;;;;;3.00;3.00;;;;;;;;5072805;27;50939;-50
2022/09/20 14:36:16;;;;;;;;;4.00;4.00;;;;;;;;5072410;27;51158;-52
2022/09/20 14:38:43;;;;;;;;;3.00;3.00;;;;;;;;5071608;28;50933;-51
2022/09/20 14:41:08;;;;;;;;;4.00;4.00;;;;;;;;5085441;27;51143;-53
2022/09/20 14:43:34;;;;;;;;;8.00;7.33;;;;;;;;5071740;27;51037;-52
2022/09/20 14:46:04;;;;;;;;;4.00;4.00;;;;;;;;5070766;28;51092;-53
2022/09/20 14:48:31;;;;;;;;;5.33;5.00;;;;;;;;5072784;27;50905;-53
2022/09/20 14:51:15;;;;;;;;;4.00;3.00;;;;;;;;5071512;27;52828;-55
2022/09/20 14:53:41;;;;;;;;;3.00;3.00;;;;;;;;5075749;27;50950;-52
2022/09/20 14:56:08;;;;;;;;;7.00;7.00;;;;;;;;5071268;27;51204;-54
2022/09/20 14:58:53;;;;;;;;;4.00;4.00;;;;;;;;5072026;27;51317;-52
2022/09/20 15:01:23;;;;;;;;;5.33;4.67;;;;;;;;5074391;27;50993;-55
2022/09/20 15:03:48;;;;;;;;;5.33;5.33;;;;;;;;5070672;27;50986;-56
2022/09/20 15:06:14;;;;;;;;;5.00;5.00;;;;;;;;5072083;27;51036;-50
2022/09/20 15:08:39;;;;;;;;;4.67;4.67;;;;;;;;5071976;27;51386;-52
2022/09/20 15:11:05;;;;;;;;;4.00;4.00;;;;;;;;5071695;27;52115;-54
2022/09/20 15:13:30;;;;;;;;;3.00;3.00;;;;;;;;5074949;27;51013;-52
2022/09/20 15:15:55;;;;;;;;;5.00;5.00;;;;;;;;5080376;27;51008;-55
2022/09/20 15:18:25;;;;;;;;;6.67;6.67;;;;;;;;5081163;27;51016;-52
2022/09/20 15:20:52;;;;;;;;;5.00;5.00;;;;;;;;5075065;27;51260;-53